Time;durP1;ratioP1;P1;durP2;ratioP2;P2;SDS_P1;SDS_P2;PMS_P1;PMS_P2;Temp;Humidity;BMP_temperature;BMP_pressure;BME280_temperature;BME280_humidity;BME280_pressure;Samples;Min_cycle;Max_cycle;Signal;HPM_P1;HPM_P2
2022/07/01 00:01:03;;;;;;;1.50;0.70;;;;;;;17.88;68.04;100284.13;4932304;28;20055;-73
2022/07/01 00:03:30;;;;;;;0.73;0.47;;;;;;;17.92;67.83;100291.94;4932139;28;20326;-74
2022/07/01 00:05:56;;;;;;;1.27;0.60;;;;;;;17.92;67.46;100310.69;4932209;28;20456;-72
2022/07/01 00:08:23;;;;;;;3.47;0.70;;;;;;;17.90;67.36;100318.84;4931220;28;20089;-72
2022/07/01 00:10:49;;;;;;;1.25;0.50;;;;;;;17.86;67.51;100312.88;4936931;28;20127;-72
2022/07/01 00:13:16;;;;;;;1.95;0.50;;;;;;;17.87;67.50;100327.13;4933901;28;20071;-73
2022/07/01 00:15:43;;;;;;;0.43;0.40;;;;;;;17.85;67.54;100332.59;4930154;28;20063;-72
2022/07/01 00:18:09;;;;;;;1.55;0.55;;;;;;;17.91;67.11;100336.63;4931162;28;20082;-72
2022/07/01 00:20:36;;;;;;;0.50;0.50;;;;;;;17.90;67.33;100339.41;4931952;29;20083;-72
2022/07/01 00:23:03;;;;;;;1.25;0.60;;;;;;;17.84;67.21;100338.91;4932467;28;20551;-74
2022/07/01 00:25:29;;;;;;;1.30;0.50;;;;;;;17.84;67.18;100335.38;4932500;28;20098;-73
2022/07/01 00:27:56;;;;;;;1.75;0.70;;;;;;;17.79;67.67;100341.09;4933005;28;20058;-74
2022/07/01 00:30:23;;;;;;;1.88;0.70;;;;;;;17.71;67.67;100340.00;4931863;28;20599;-73
2022/07/01 00:32:52;;;;;;;0.95;0.70;;;;;;;17.75;67.79;100353.03;4931673;28;20122;-73
2022/07/01 00:35:19;;;;;;;1.13;0.77;;;;;;;17.67;67.54;100327.81;4933618;28;20142;-73
2022/07/01 00:37:46;;;;;;;0.93;0.75;;;;;;;17.74;67.78;100329.06;4931918;28;20135;-74
2022/07/01 00:40:13;;;;;;;0.82;0.80;;;;;;;17.85;68.13;100337.09;4931850;28;20059;-74
2022/07/01 00:42:40;;;;;;;1.08;0.90;;;;;;;17.83;67.92;100344.41;4931979;28;20408;-74
2022/07/01 00:45:10;;;;;;;1.05;0.90;;;;;;;17.62;68.66;100332.66;4932100;28;20059;-75
2022/07/01 00:47:39;;;;;;;0.90;0.90;;;;;;;17.51;70.30;100341.50;4930918;28;20075;-75
2022/07/01 00:50:12;;;;;;;2.08;0.90;;;;;;;17.58;71.89;100350.78;4930402;28;20159;-72
2022/07/01 00:52:43;;;;;;;1.45;1.13;;;;;;;17.50;72.52;100353.16;4933957;28;20058;-73
2022/07/01 00:55:12;;;;;;;1.30;1.20;;;;;;;17.33;73.42;100364.28;4932247;28;20427;-73
2022/07/01 00:57:40;;;;;;;1.35;1.13;;;;;;;16.98;75.04;100362.47;4931668;28;20397;-73
2022/07/01 01:00:13;;;;;;;2.33;1.05;;;;;;;16.79;78.39;100365.63;4931144;28;20127;-73
2022/07/01 01:02:40;;;;;;;1.30;1.20;;;;;;;16.79;78.14;100370.97;4931544;28;20047;-73
2022/07/01 01:05:08;;;;;;;1.30;1.20;;;;;;;16.57;80.36;100328.00;4931220;28;20329;-73
2022/07/01 01:07:35;;;;;;;1.13;1.02;;;;;;;16.79;79.96;100364.78;4931024;28;20051;-74
2022/07/01 01:10:02;;;;;;;1.33;1.23;;;;;;;16.80;79.39;100364.66;4930672;28;20083;-74
2022/07/01 01:12:29;;;;;;;1.10;1.00;;;;;;;16.71;79.63;100364.47;4930889;28;20048;-73
2022/07/01 01:14:57;;;;;;;1.17;0.90;;;;;;;16.68;81.24;100357.53;4931982;28;20051;-73
2022/07/01 01:17:24;;;;;;;0.90;0.90;;;;;;;16.73;82.16;100360.72;4931560;28;20061;-74
2022/07/01 01:19:51;;;;;;;1.63;1.00;;;;;;;16.76;82.73;100379.22;4930857;28;20048;-74
2022/07/01 01:22:18;;;;;;;1.52;1.00;;;;;;;16.73;81.11;100378.56;4930302;28;20218;-73
2022/07/01 01:24:47;;;;;;;1.65;1.20;;;;;;;16.77;82.13;100382.75;4931503;28;20052;-75
2022/07/01 01:27:14;;;;;;;1.70;1.25;;;;;;;16.60;80.52;100367.88;4931528;28;20069;-74
2022/07/01 01:29:40;;;;;;;1.73;1.38;;;;;;;16.58;81.89;100374.31;4931955;28;20078;-74
2022/07/01 01:32:08;;;;;;;1.88;1.35;;;;;;;16.59;83.25;100381.38;4931656;28;20055;-74
2022/07/01 01:34:36;;;;;;;1.95;1.50;;;;;;;16.54;83.18;100383.50;4931579;28;20563;-73
2022/07/01 01:37:05;;;;;;;2.30;1.55;;;;;;;16.51;83.57;100399.78;4931783;28;20638;-73
2022/07/01 01:39:32;;;;;;;2.10;1.50;;;;;;;16.38;84.29;100402.44;4930907;28;20095;-75
2022/07/01 01:41:58;;;;;;;2.22;1.70;;;;;;;16.31;86.44;100409.22;4931136;28;20120;-73
2022/07/01 01:44:25;;;;;;;2.65;1.80;;;;;;;16.25;88.29;100410.50;4924007;29;20059;-73
2022/07/01 01:46:52;;;;;;;3.70;1.90;;;;;;;16.14;88.88;100405.91;4931598;28;20047;-75
2022/07/01 01:49:19;;;;;;;3.92;1.98;;;;;;;16.11;89.47;100414.13;4933275;28;20048;-73
2022/07/01 01:51:45;;;;;;;3.60;1.90;;;;;;;16.11;90.16;100411.47;4931153;28;20043;-73
2022/07/01 01:54:12;;;;;;;4.28;2.22;;;;;;;16.13;90.67;100408.69;4930535;28;20058;-71
2022/07/01 01:56:39;;;;;;;2.75;2.00;;;;;;;16.17;90.04;100420.00;4930815;28;20473;-73
2022/07/01 01:59:06;;;;;;;2.83;1.80;;;;;;;16.07;90.63;100425.13;4931260;28;20727;-74
2022/07/01 02:01:33;;;;;;;2.15;1.95;;;;;;;15.95;91.70;100417.97;4930852;28;20044;-73
2022/07/01 02:04:00;;;;;;;2.50;2.17;;;;;;;15.81;93.22;100418.91;4930827;28;20051;-74
2022/07/01 02:06:27;;;;;;;2.85;2.17;;;;;;;15.71;96.17;100421.38;4929176;28;20048;-74
2022/07/01 02:08:54;;;;;;;2.53;1.90;;;;;;;15.61;96.12;100427.41;4933076;28;20110;-73
2022/07/01 02:11:20;;;;;;;2.03;1.83;;;;;;;15.51;97.05;100413.81;4932664;28;20066;-74
2022/07/01 02:13:47;;;;;;;2.10;1.90;;;;;;;15.60;97.79;100420.34;4930264;28;20472;-73
2022/07/01 02:16:14;;;;;;;2.60;2.40;;;;;;;15.62;97.80;100413.97;4929969;28;20055;-73
2022/07/01 02:18:40;;;;;;;2.42;2.10;;;;;;;15.67;97.47;100422.53;4934565;28;20052;-73
2022/07/01 02:21:07;;;;;;;2.75;2.15;;;;;;;15.62;97.60;100403.28;4930131;28;20488;-73
2022/07/01 02:23:37;;;;;;;1.98;1.88;;;;;;;15.63;95.89;100402.31;4930414;28;20083;-73
2022/07/01 02:26:03;;;;;;;2.20;2.00;;;;;;;15.72;95.99;100420.41;4930378;28;20059;-74
2022/07/01 02:28:30;;;;;;;3.35;2.00;;;;;;;15.72;97.53;100416.88;4935540;28;20095;-74
2022/07/01 02:30:56;;;;;;;3.17;2.25;;;;;;;15.77;97.88;100423.59;4930469;28;20051;-74
2022/07/01 02:33:23;;;;;;;2.65;1.75;;;;;;;15.85;96.73;100416.91;4930832;28;20066;-74
2022/07/01 02:35:50;;;;;;;2.22;2.03;;;;;;;15.83;96.35;100402.78;4930445;28;20051;-73
2022/07/01 02:38:17;;;;;;;2.55;2.35;;;;;;;15.91;96.49;100408.44;4935891;28;20151;-76
2022/07/01 02:40:43;;;;;;;2.53;1.90;;;;;;;15.82;94.92;100406.41;4930010;28;20504;-74
2022/07/01 02:43:10;;;;;;;1.95;1.85;;;;;;;15.81;96.15;100410.91;4930984;28;20059;-74
2022/07/01 02:45:37;;;;;;;3.60;2.08;;;;;;;15.78;96.46;100398.59;4929978;28;20992;-73
2022/07/01 02:48:04;;;;;;;3.05;2.10;;;;;;;15.75;97.18;100397.97;4929403;28;20083;-73
2022/07/01 02:50:31;;;;;;;2.75;2.00;;;;;;;15.84;97.06;100407.16;4928789;28;20051;-73
2022/07/01 02:52:58;;;;;;;2.20;2.00;;;;;;;15.70;97.43;100389.44;4933487;28;20047;-73
2022/07/01 02:55:25;;;;;;;3.20;2.10;;;;;;;15.80;96.92;100409.19;4931212;28;20083;-74
2022/07/01 02:57:51;;;;;;;2.42;1.90;;;;;;;15.62;96.92;100395.28;4930736;28;20086;-73
2022/07/01 03:00:20;;;;;;;2.60;1.90;;;;;;;15.50;97.44;100379.22;4929932;28;20058;-73
2022/07/01 03:02:47;;;;;;;2.20;1.98;;;;;;;15.53;96.13;100400.34;4930634;28;20052;-73
2022/07/01 03:05:14;;;;;;;2.45;1.70;;;;;;;15.36;96.70;100374.81;4929554;28;20102;-73
2022/07/01 03:07:43;;;;;;;2.03;1.80;;;;;;;15.45;96.74;100395.53;4929855;28;20497;-74
2022/07/01 03:10:10;;;;;;;2.20;2.10;;;;;;;15.56;98.54;100393.03;4928936;28;20059;-73
2022/07/01 03:12:39;;;;;;;2.42;2.22;;;;;;;15.60;96.75;100388.31;4929800;28;20066;-73
2022/07/01 03:15:08;;;;;;;3.35;2.38;;;;;;;15.70;97.86;100386.75;4925461;28;20059;-74
2022/07/01 03:17:36;;;;;;;1.80;1.70;;;;;;;15.59;95.59;100365.25;4930751;28;20064;-74
2022/07/01 03:20:06;;;;;;;2.43;2.20;;;;;;;15.75;96.65;100381.94;4933748;28;20059;-74
2022/07/01 03:22:34;;;;;;;2.00;1.75;;;;;;;15.75;94.64;100373.94;4932977;28;20039;-74
2022/07/01 03:25:03;;;;;;;1.88;1.73;;;;;;;15.72;94.56;100367.00;4934213;28;20063;-74
2022/07/01 03:27:30;;;;;;;2.92;1.98;;;;;;;15.59;94.46;100342.09;4933847;28;20048;-74
2022/07/01 03:29:57;;;;;;;2.20;1.90;;;;;;;15.71;94.46;100362.63;4933031;28;20705;-74
2022/07/01 03:32:24;;;;;;;2.50;2.08;;;;;;;15.74;95.31;100353.56;4932813;28;20112;-74
2022/07/01 03:34:52;;;;;;;2.55;1.92;;;;;;;15.83;95.80;100357.41;4933627;28;20059;-73
2022/07/01 03:37:20;;;;;;;1.95;1.73;;;;;;;15.74;92.96;100341.03;4930622;28;20063;-73
2022/07/01 03:39:48;;;;;;;2.78;1.60;;;;;;;15.88;93.54;100356.13;4932963;28;20071;-73
2022/07/01 03:42:14;;;;;;;2.25;2.03;;;;;;;15.90;92.54;100361.38;4932796;28;20051;-74
2022/07/01 03:44:41;;;;;;;2.53;1.67;;;;;;;15.72;91.97;100331.44;4931530;29;20058;-73
2022/07/01 03:47:08;;;;;;;2.13;1.90;;;;;;;15.79;92.82;100360.28;4933419;28;20476;-73
2022/07/01 03:49:35;;;;;;;1.58;1.48;;;;;;;15.73;93.30;100355.38;4932688;28;20051;-73
2022/07/01 03:52:03;;;;;;;4.03;1.73;;;;;;;15.76;93.38;100360.47;4930520;28;20063;-74
2022/07/01 03:54:30;;;;;;;2.08;1.60;;;;;;;15.79;95.56;100365.63;4932302;28;20059;-73
2022/07/01 03:56:58;;;;;;;1.73;1.63;;;;;;;15.81;94.51;100364.66;4933391;28;20048;-73
2022/07/01 03:59:28;;;;;;;2.28;1.77;;;;;;;15.87;93.96;100362.44;4932418;28;20048;-73
2022/07/01 04:01:57;;;;;;;1.90;1.80;;;;;;;15.72;93.05;100342.13;4932872;28;20040;-74
2022/07/01 04:04:25;;;;;;;1.70;1.60;;;;;;;15.82;93.03;100366.38;4932168;28;20808;-74
2022/07/01 04:06:58;;;;;;;1.50;1.40;;;;;;;15.77;92.58;100372.88;4933000;28;20131;-73
2022/07/01 04:09:25;;;;;;;3.17;1.20;;;;;;;15.78;93.39;100390.59;4931712;28;20048;-74
2022/07/01 04:11:53;;;;;;;1.42;1.30;;;;;;;15.85;92.50;100403.53;4933041;28;20047;-73
2022/07/01 04:14:20;;;;;;;1.10;1.00;;;;;;;15.79;91.88;100396.78;4932367;28;20047;-75
2022/07/01 04:16:46;;;;;;;1.42;1.20;;;;;;;15.82;91.35;100401.94;4927938;28;20048;-77
2022/07/01 04:19:14;;;;;;;2.30;1.60;;;;;;;15.83;91.80;100413.47;4932512;28;20404;-74
2022/07/01 04:24:28;;;;;;;1.85;1.30;;;;;;;15.86;89.95;100416.78;4930335;28;20059;-72
2022/07/01 04:26:55;;;;;;;2.20;1.13;;;;;;;15.84;90.38;100415.19;4932959;28;20044;-72
2022/07/01 04:29:21;;;;;;;1.80;1.20;;;;;;;15.84;91.65;100415.19;4934139;29;20052;-74
2022/07/01 04:31:48;;;;;;;2.00;1.45;;;;;;;15.85;89.98;100415.06;4932743;28;20067;-73
2022/07/01 04:34:15;;;;;;;2.17;1.40;;;;;;;15.75;90.63;100389.94;4930009;28;20047;-73
2022/07/01 04:36:42;;;;;;;1.35;1.25;;;;;;;15.73;89.10;100395.41;4932194;28;20085;-72
2022/07/01 04:39:08;;;;;;;1.25;1.20;;;;;;;15.90;89.36;100431.63;4934768;28;20043;-73
2022/07/01 04:44:20;;;;;;;3.05;1.30;;;;;;;15.87;86.47;100445.22;4929791;28;20048;-73
2022/07/01 04:46:47;;;;;;;2.67;1.38;;;;;;;15.91;89.32;100448.50;4931717;28;20044;-72
2022/07/01 04:49:14;;;;;;;1.50;1.02;;;;;;;15.96;88.12;100465.94;4932316;28;20063;-73
2022/07/01 04:51:41;;;;;;;2.25;1.33;;;;;;;15.99;87.06;100480.91;4932436;28;20048;-73
2022/07/01 04:54:08;;;;;;;2.53;1.40;;;;;;;15.85;87.97;100464.97;4930188;28;20054;-72
2022/07/01 04:56:40;;;;;;;2.03;1.42;;;;;;;15.99;88.32;100476.41;4932324;28;20111;-74
2022/07/01 04:59:13;;;;;;;1.50;1.40;;;;;;;16.02;87.97;100472.69;4931787;28;20059;-74
2022/07/01 05:01:44;;;;;;;2.65;1.40;;;;;;;16.06;87.85;100479.50;4930001;28;20091;-72
2022/07/01 05:04:12;;;;;;;2.55;1.83;;;;;;;16.00;87.84;100493.28;4931840;28;20047;-73
2022/07/01 05:06:39;;;;;;;1.73;1.40;;;;;;;16.05;88.04;100499.19;4931652;28;20047;-72
2022/07/01 05:09:11;;;;;;;3.50;1.50;;;;;;;16.03;87.56;100495.75;4931204;28;20062;-72
2022/07/01 05:11:38;;;;;;;1.70;1.40;;;;;;;16.03;87.47;100496.63;4931232;28;20052;-72
2022/07/01 05:14:06;;;;;;;2.95;1.33;;;;;;;15.97;88.00;100488.16;4931633;28;20114;-72
2022/07/01 05:16:33;;;;;;;1.67;1.15;;;;;;;16.09;87.53;100498.00;4930560;28;20137;-73
2022/07/01 05:21:56;;;;;;;4.15;1.58;;;;;;;16.21;87.04;100512.34;4925670;29;20112;-72
2022/07/01 05:24:30;;;;;;;3.42;1.60;;;;;;;16.20;85.76;100513.31;4929733;28;20059;-73
2022/07/01 05:26:58;;;;;;;1.30;1.20;;;;;;;16.14;84.61;100511.91;4928029;28;20572;-74
2022/07/01 05:29:26;;;;;;;3.58;1.35;;;;;;;16.09;84.71;100522.03;4931198;28;20094;-73
2022/07/01 05:31:53;;;;;;;1.52;1.20;;;;;;;16.11;84.57;100530.81;4932112;28;20055;-73
2022/07/01 05:34:20;;;;;;;3.67;1.30;;;;;;;16.16;84.59;100528.69;4928675;28;20060;-72
2022/07/01 05:36:47;;;;;;;1.35;0.80;;;;;;;16.16;84.45;100528.69;4931324;28;20051;-73
2022/07/01 05:39:13;;;;;;;2.53;0.88;;;;;;;16.21;84.19;100534.59;4931156;28;20044;-73
2022/07/01 05:41:40;;;;;;;1.15;1.05;;;;;;;16.36;83.57;100540.72;4931138;28;20043;-73
2022/07/01 05:44:09;;;;;;;1.77;0.90;;;;;;;16.51;82.42;100522.75;4931255;28;20083;-73
2022/07/01 05:46:36;;;;;;;3.50;1.10;;;;;;;16.59;80.93;100528.41;4931752;28;20126;-73
2022/07/01 05:49:03;;;;;;;0.80;0.70;;;;;;;16.68;80.25;100530.47;4931050;28;20047;-75
2022/07/01 05:51:30;;;;;;;3.25;0.93;;;;;;;16.79;79.29;100543.94;4930470;28;20058;-72
2022/07/01 05:53:57;;;;;;;4.00;1.65;;;;;;;16.81;75.81;100536.69;4930553;28;20048;-74
2022/07/01 05:56:25;;;;;;;3.47;0.60;;;;;;;16.90;74.67;100540.50;4931139;28;20412;-75
2022/07/01 05:58:54;;;;;;;0.70;0.65;;;;;;;17.15;74.19;100541.34;4930829;28;20047;-74
2022/07/01 06:01:20;;;;;;;1.77;0.82;;;;;;;17.28;73.19;100535.97;4930279;28;20054;-73
2022/07/01 06:03:47;;;;;;;1.13;0.70;;;;;;;17.24;72.03;100528.25;4931019;28;20111;-72
2022/07/01 06:06:14;;;;;;;2.63;0.80;;;;;;;17.38;71.55;100538.81;4930198;28;20505;-71
2022/07/01 06:08:40;;;;;;;4.57;0.60;;;;;;;17.32;70.79;100531.22;4931733;28;20044;-74
2022/07/01 06:11:08;;;;;;;2.47;0.90;;;;;;;17.41;71.55;100546.63;4930366;28;20059;-73
2022/07/01 06:13:35;;;;;;;2.50;0.70;;;;;;;17.28;70.80;100543.97;4930307;28;20118;-73
2022/07/01 06:16:01;;;;;;;2.65;0.77;;;;;;;17.26;71.48;100545.06;4930716;28;20110;-73
2022/07/01 06:18:28;;;;;;;1.45;1.00;;;;;;;17.29;71.83;100552.88;4929116;28;20122;-72
2022/07/01 06:20:55;;;;;;;0.85;0.80;;;;;;;17.38;72.87;100560.22;4931033;28;20079;-72
2022/07/01 06:23:22;;;;;;;3.25;0.68;;;;;;;17.59;71.59;100571.19;4930370;28;20051;-73
2022/07/01 06:25:48;;;;;;;0.70;0.60;;;;;;;17.65;69.61;100571.63;4930441;28;20108;-73
2022/07/01 06:28:15;;;;;;;1.17;0.60;;;;;;;17.22;70.80;100551.59;4929385;28;20107;-73
2022/07/01 06:30:43;;;;;;;3.78;0.90;;;;;;;17.28;71.00;100570.75;4930471;28;20299;-73
2022/07/01 06:33:11;;;;;;;2.25;0.77;;;;;;;17.25;72.13;100546.03;4930582;28;20743;-73
2022/07/01 06:35:38;;;;;;;4.05;0.82;;;;;;;17.40;70.52;100552.94;4929950;28;20110;-73
2022/07/01 06:38:05;;;;;;;1.10;0.65;;;;;;;17.33;71.16;100565.91;4928849;28;20051;-72
2022/07/01 06:40:32;;;;;;;1.40;0.65;;;;;;;17.23;70.75;100569.34;4928977;28;20091;-74
2022/07/01 06:42:59;;;;;;;4.38;1.42;;;;;;;17.22;71.87;100563.16;4930093;28;20433;-72
2022/07/01 06:45:25;;;;;;;4.03;0.88;;;;;;;17.25;70.60;100520.13;4929195;28;20059;-73
2022/07/01 06:47:52;;;;;;;2.58;0.75;;;;;;;17.49;69.13;100555.78;4928722;29;20054;-74
2022/07/01 06:50:19;;;;;;;3.13;0.90;;;;;;;17.50;70.20;100545.94;4928768;28;20488;-72
2022/07/01 06:52:46;;;;;;;4.63;0.77;;;;;;;17.48;68.73;100547.88;4927197;29;20048;-73
2022/07/01 06:55:12;;;;;;;2.78;0.85;;;;;;;17.39;68.68;100540.50;4930075;28;20059;-74
2022/07/01 06:57:39;;;;;;;2.17;0.85;;;;;;;17.49;69.97;100529.00;4929701;28;20076;-72
2022/07/01 07:00:06;;;;;;;1.98;0.90;;;;;;;17.79;68.78;100536.63;4928966;28;20333;-72
2022/07/01 07:02:33;;;;;;;3.15;0.85;;;;;;;17.79;67.20;100541.97;4928247;29;20059;-72
2022/07/01 07:05:00;;;;;;;2.97;0.90;;;;;;;17.64;68.95;100548.47;4929716;28;20102;-72
2022/07/01 07:07:28;;;;;;;2.95;0.82;;;;;;;17.56;69.40;100563.38;4929420;28;20497;-72
2022/07/01 07:09:56;;;;;;;2.65;0.85;;;;;;;17.43;69.93;100566.97;4930237;28;20047;-73
2022/07/01 07:12:24;;;;;;;1.98;0.80;;;;;;;17.29;69.41;100556.41;4929061;28;20134;-72
2022/07/01 07:14:51;;;;;;;1.05;0.47;;;;;;;17.21;69.54;100569.47;4929303;28;20642;-73
2022/07/01 07:17:17;;;;;;;3.50;1.00;;;;;;;17.16;70.58;100577.81;4929949;28;20055;-74
2022/07/01 07:19:44;;;;;;;3.85;0.77;;;;;;;17.04;69.66;100577.84;4929769;28;20043;-73
2022/07/01 07:22:11;;;;;;;5.53;0.63;;;;;;;16.90;71.16;100577.97;4930339;28;20067;-72
2022/07/01 07:24:38;;;;;;;1.80;0.80;;;;;;;16.86;70.81;100577.31;4932035;28;20062;-72
2022/07/01 07:27:06;;;;;;;2.33;0.80;;;;;;;16.82;71.81;100594.56;4930714;28;20067;-73
2022/07/01 07:29:33;;;;;;;2.58;1.25;;;;;;;16.74;71.56;100592.41;4929385;28;20456;-72
2022/07/01 07:31:59;;;;;;;3.42;0.88;;;;;;;16.72;72.15;100580.09;4929938;28;20552;-72
2022/07/01 07:34:26;;;;;;;2.95;0.77;;;;;;;16.89;71.82;100606.53;4928520;28;20504;-72
2022/07/01 07:36:53;;;;;;;1.20;0.68;;;;;;;16.89;72.69;100614.53;4930262;28;20048;-72
2022/07/01 07:39:20;;;;;;;1.40;0.60;;;;;;;16.70;72.85;100601.59;4928624;28;20059;-73
2022/07/01 07:41:46;;;;;;;5.38;1.35;;;;;;;16.67;74.56;100631.25;4930347;28;20055;-73
2022/07/01 07:44:13;;;;;;;3.28;0.95;;;;;;;16.60;75.28;100651.28;4929224;28;20078;-74
2022/07/01 07:46:40;;;;;;;1.60;0.90;;;;;;;16.52;76.92;100645.63;4931229;28;20059;-73
2022/07/01 07:49:06;;;;;;;3.47;1.05;;;;;;;16.43;77.57;100651.56;4930817;28;20043;-73
2022/07/01 07:51:33;;;;;;;2.90;0.82;;;;;;;16.46;78.13;100668.25;4931553;28;20067;-75
2022/07/01 07:54:02;;;;;;;2.17;0.85;;;;;;;16.35;78.30;100664.59;4928807;28;20130;-73
2022/07/01 07:56:30;;;;;;;3.08;1.17;;;;;;;16.13;77.76;100657.13;4929353;28;20150;-73
2022/07/01 07:58:57;;;;;;;3.05;1.10;;;;;;;16.10;79.16;100655.50;4929079;28;20669;-74
2022/07/01 08:01:23;;;;;;;2.78;0.98;;;;;;;16.00;79.51;100662.44;4929653;28;20071;-72
2022/07/01 08:03:50;;;;;;;1.65;1.10;;;;;;;15.95;82.36;100644.97;4929476;28;20103;-74
2022/07/01 08:06:18;;;;;;;1.40;0.90;;;;;;;15.93;80.75;100663.78;4932192;28;20075;-72
2022/07/01 08:08:46;;;;;;;1.33;0.93;;;;;;;15.78;81.33;100638.91;4932480;28;20099;-75
2022/07/01 08:11:13;;;;;;;3.05;1.30;;;;;;;15.89;83.22;100653.41;4932707;28;20051;-72
2022/07/01 08:13:39;;;;;;;3.63;1.10;;;;;;;15.90;82.19;100644.44;4932613;28;20059;-74
2022/07/01 08:16:07;;;;;;;2.53;1.20;;;;;;;15.92;83.90;100642.50;4933028;28;20504;-71
2022/07/01 08:18:34;;;;;;;4.57;1.08;;;;;;;15.99;83.00;100651.84;4930185;28;20047;-75
2022/07/01 08:21:01;;;;;;;4.43;1.17;;;;;;;16.06;83.18;100654.00;4928263;28;20503;-73
2022/07/01 08:23:27;;;;;;;5.03;1.30;;;;;;;15.98;82.60;100626.09;4932286;28;20055;-75
2022/07/01 08:25:54;;;;;;;2.20;1.15;;;;;;;16.15;84.31;100639.19;4932498;28;20131;-72
2022/07/01 08:28:21;;;;;;;3.17;1.48;;;;;;;16.17;83.52;100641.75;4930328;28;20131;-72
2022/07/01 08:30:47;;;;;;;1.98;1.10;;;;;;;16.23;82.62;100633.31;4933001;28;20052;-72
2022/07/01 08:33:14;;;;;;;4.57;1.35;;;;;;;16.20;81.81;100625.53;4932221;28;20131;-73
2022/07/01 08:35:41;;;;;;;4.82;1.17;;;;;;;16.22;80.56;100629.78;4932359;28;20055;-75
2022/07/01 08:38:07;;;;;;;2.08;1.20;;;;;;;16.28;81.29;100640.09;4931099;28;20055;-74
2022/07/01 08:40:36;;;;;;;2.90;1.50;;;;;;;16.28;81.55;100618.72;4932217;28;20044;-73
2022/07/01 08:43:05;;;;;;;5.25;1.48;;;;;;;16.33;81.77;100626.44;4932345;28;20055;-74
2022/07/01 08:45:34;;;;;;;3.33;1.48;;;;;;;16.33;82.91;100626.44;4931748;28;20070;-72
2022/07/01 08:48:00;;;;;;;3.30;1.65;;;;;;;16.37;83.04;100617.25;4935580;28;20891;-71
2022/07/01 08:50:31;;;;;;;3.08;1.67;;;;;;;16.30;84.58;100595.41;4931116;28;20047;-73
2022/07/01 08:52:58;;;;;;;3.83;1.70;;;;;;;16.50;84.28;100612.78;4931967;28;20098;-73
2022/07/01 08:55:26;;;;;;;2.80;1.20;;;;;;;16.53;83.06;100612.53;4931942;28;20046;-74
2022/07/01 08:57:53;;;;;;;2.53;1.30;;;;;;;16.55;82.31;100593.72;4931677;28;20051;-73
2022/07/01 09:00:28;;;;;;;6.38;1.77;;;;;;;16.64;81.44;100587.81;4931262;28;20515;-74
2022/07/01 09:02:56;;;;;;;2.72;1.42;;;;;;;16.83;82.08;100598.94;4932087;28;20052;-74
2022/07/01 09:05:28;;;;;;;2.60;1.10;;;;;;;17.10;83.27;100607.69;4930147;28;20056;-72
2022/07/01 09:08:03;;;;;;;3.55;1.52;;;;;;;17.22;78.92;100622.03;4931521;28;20496;-71
2022/07/01 09:10:33;;;;;;;2.78;1.45;;;;;;;17.33;78.20;100648.88;4930146;28;20067;-72
2022/07/01 09:13:05;;;;;;;2.92;1.33;;;;;;;17.32;75.44;100655.19;4932227;28;20189;-71
2022/07/01 09:15:32;;;;;;;4.78;1.80;;;;;;;17.41;77.17;100664.41;4931252;28;20060;-73
2022/07/01 09:18:11;;;;;;;5.03;1.80;;;;;;;17.45;76.48;100687.31;4930729;28;20062;-74
2022/07/01 09:20:41;;;;;;;4.70;1.60;;;;;;;17.26;76.51;100695.78;4931138;28;20043;-75
2022/07/01 09:23:16;;;;;;;3.30;1.35;;;;;;;17.34;77.88;100696.09;4931329;28;20134;-73
2022/07/01 09:25:45;;;;;;;3.95;1.80;;;;;;;17.42;76.97;100687.53;4924856;29;20091;-73
2022/07/01 09:28:21;;;;;;;3.00;1.60;;;;;;;17.47;76.30;100688.91;4929712;28;20070;-72
2022/07/01 09:30:57;;;;;;;7.22;1.60;;;;;;;17.42;75.06;100692.91;4931386;28;20079;-76
2022/07/01 09:33:26;;;;;;;3.30;1.40;;;;;;;17.34;74.34;100692.56;4929575;29;20083;-73
2022/07/01 09:35:54;;;;;;;3.03;1.30;;;;;;;17.26;73.90;100685.09;4930950;28;20050;-72
2022/07/01 09:38:25;;;;;;;5.13;1.45;;;;;;;17.25;73.93;100682.50;4926888;28;20051;-72
2022/07/01 09:41:03;;;;;;;2.97;1.70;;;;;;;17.12;73.88;100677.16;4931317;28;20051;-72
2022/07/01 09:43:33;;;;;;;5.93;1.77;;;;;;;17.21;74.05;100697.91;4931093;28;20138;-72
2022/07/01 09:46:10;;;;;;;3.28;1.55;;;;;;;17.15;73.73;100690.34;4930844;28;20161;-72
2022/07/01 09:48:36;;;;;;;3.97;1.90;;;;;;;16.90;75.49;100667.09;4929852;28;20448;-73
2022/07/01 09:51:05;;;;;;;5.20;1.52;;;;;;;16.90;73.32;100682.28;4930783;28;20052;-72
2022/07/01 09:53:40;;;;;;;3.90;2.05;;;;;;;16.81;74.03;100683.78;4930365;28;20111;-72
2022/07/01 09:56:06;;;;;;;3.15;1.50;;;;;;;16.92;73.37;100683.88;4929095;28;20055;-71
2022/07/01 09:58:35;;;;;;;4.00;1.88;;;;;;;17.13;73.10;100671.72;4930377;28;20066;-74
2022/07/01 10:01:03;;;;;;;4.13;2.00;;;;;;;17.32;71.33;100681.97;4930693;28;20075;-72
2022/07/01 10:03:32;;;;;;;3.95;1.90;;;;;;;17.50;69.99;100693.19;4929676;28;20063;-74
2022/07/01 10:06:11;;;;;;;3.00;1.65;;;;;;;17.56;69.89;100698.13;4930416;28;20048;-73
2022/07/01 10:08:49;;;;;;;2.58;1.73;;;;;;;17.54;69.53;100698.22;4928886;28;20058;-75
2022/07/01 10:11:29;;;;;;;3.25;1.40;;;;;;;17.81;71.34;100691.88;4930563;28;20115;-72
2022/07/01 10:13:58;;;;;;;3.13;1.60;;;;;;;17.96;67.54;100692.59;4924487;29;20582;-72
2022/07/01 10:16:25;;;;;;;7.65;2.28;;;;;;;18.24;69.55;100681.56;4929700;28;20464;-72
2022/07/01 10:18:55;;;;;;;3.15;1.70;;;;;;;18.52;66.93;100696.44;4930663;28;20139;-73
2022/07/01 10:21:29;;;;;;;2.80;1.58;;;;;;;18.58;64.66;100696.84;4931347;28;20058;-72
2022/07/01 10:24:12;;;;;;;2.80;1.70;;;;;;;18.95;65.63;100687.84;4930657;28;20048;-74
2022/07/01 10:26:39;;;;;;;2.80;1.50;;;;;;;19.44;64.10;100711.72;4928910;28;20043;-74
2022/07/01 10:29:36;;;;;;;3.85;1.73;;;;;;;19.73;63.67;100717.50;4929984;28;20393;-74
2022/07/01 10:32:25;;;;;;;3.42;1.85;;;;;;;19.89;59.86;100716.13;4924908;29;20099;-71
2022/07/01 10:35:13;;;;;;;4.10;1.58;;;;;;;20.01;59.63;100714.28;4925574;28;20415;-73
2022/07/01 10:37:59;;;;;;;4.60;1.83;;;;;;;19.56;60.32;100721.53;4929016;28;20056;-74
2022/07/01 10:40:46;;;;;;;2.90;1.70;;;;;;;19.27;60.10;100724.63;4929031;28;20055;-72
2022/07/01 10:43:17;;;;;;;3.35;1.17;;;;;;;19.31;61.53;100727.09;4930083;28;20500;-72
2022/07/01 10:45:57;;;;;;;4.72;1.73;;;;;;;19.43;59.78;100716.25;4930553;28;20420;-72
2022/07/01 10:48:25;;;;;;;2.17;1.40;;;;;;;19.53;60.73;100706.50;4930967;28;20091;-73
2022/07/01 10:50:53;;;;;;;3.30;1.20;;;;;;;20.15;58.65;100731.97;4930086;28;20107;-72
2022/07/01 10:53:20;;;;;;;3.20;1.30;;;;;;;19.83;58.41;100700.50;4929923;28;20047;-72
2022/07/01 10:55:50;;;;;;;4.00;1.50;;;;;;;20.26;58.19;100716.69;4928141;29;20044;-74
2022/07/01 10:58:37;;;;;;;2.35;1.20;;;;;;;20.57;56.90;100706.97;4928158;28;20048;-72
2022/07/01 11:01:04;;;;;;;2.92;1.30;;;;;;;20.89;54.38;100716.84;4929131;28;20052;-73
2022/07/01 11:03:39;;;;;;;4.00;1.27;;;;;;;21.27;52.98;100708.19;4928806;28;20060;-72
2022/07/01 11:06:07;;;;;;;2.95;1.42;;;;;;;21.65;51.88;100707.56;4928747;28;20107;-71
2022/07/01 11:08:34;;;;;;;1.60;1.00;;;;;;;21.87;51.62;100707.38;4928440;28;20099;-73
2022/07/01 11:11:04;;;;;;;1.90;0.98;;;;;;;22.02;50.37;100710.56;4929871;28;20114;-73
2022/07/01 11:13:31;;;;;;;1.65;1.02;;;;;;;21.97;49.74;100705.53;4929509;28;20051;-73
2022/07/01 11:16:00;;;;;;;2.58;1.48;;;;;;;21.70;49.83;100694.53;4928913;28;20071;-73
2022/07/01 11:18:30;;;;;;;2.78;1.40;;;;;;;20.73;50.42;100713.75;4927978;28;20520;-73
2022/07/01 11:21:09;;;;;;;2.35;1.08;;;;;;;20.27;53.21;100712.19;4929259;28;20044;-73
2022/07/01 11:23:37;;;;;;;3.83;1.20;;;;;;;20.26;53.41;100715.84;4928422;28;20064;-73
2022/07/01 11:26:07;;;;;;;1.38;1.05;;;;;;;20.24;53.22;100712.41;4928668;28;20058;-73
2022/07/01 11:28:40;;;;;;;3.55;1.77;;;;;;;20.33;53.30;100711.66;4928670;28;20040;-73
2022/07/01 11:31:07;;;;;;;2.55;1.40;;;;;;;20.46;52.58;100701.59;4928989;28;20568;-74
2022/07/01 11:33:34;;;;;;;3.40;1.50;;;;;;;20.64;52.02;100705.47;4928298;29;20087;-73
2022/07/01 11:41:56;;;;;;;4.63;1.10;;;;;;;20.51;52.31;100709.31;4931135;28;20103;-73
2022/07/01 11:44:37;;;;;;;1.35;1.10;;;;;;;20.35;52.62;100703.47;4931772;28;20716;-72